sensor_id;sensor_type;location;lat;lon;timestamp;temperature;humidity
19970;DHT22;10146;47.754;9.566;2024-03-29T00:01:46;4.40;99.90
19970;DHT22;10146;47.754;9.566;2024-03-29T00:04:12;4.20;99.90
19970;DHT22;10146;47.754;9.566;2024-03-29T00:06:37;4.30;99.90
19970;DHT22;10146;47.754;9.566;2024-03-29T00:09:03;4.40;99.90
19970;DHT22;10146;47.754;9.566;2024-03-29T00:11:28;4.40;99.90
19970;DHT22;10146;47.754;9.566;2024-03-29T00:13:54;4.40;99.90
19970;DHT22;10146;47.754;9.566;2024-03-29T00:16:20;4.50;99.90
19970;DHT22;10146;47.754;9.566;2024-03-29T00:18:47;4.60;99.90
19970;DHT22;10146;47.754;9.566;2024-03-29T00:21:13;4.70;99.90
19970;DHT22;10146;47.754;9.566;2024-03-29T00:23:40;4.90;99.90
19970;DHT22;10146;47.754;9.566;2024-03-29T00:26:05;5.00;99.90
19970;DHT22;10146;47.754;9.566;2024-03-29T00:28:32;5.10;99.90
19970;DHT22;10146;47.754;9.566;2024-03-29T00:30:58;5.00;99.90
19970;DHT22;10146;47.754;9.566;2024-03-29T00:33:24;4.90;99.90
19970;DHT22;10146;47.754;9.566;2024-03-29T00:35:49;4.90;99.90
19970;DHT22;10146;47.754;9.566;2024-03-29T00:38:15;4.90;99.90
19970;DHT22;10146;47.754;9.566;2024-03-29T00:40:40;4.90;99.90
19970;DHT22;10146;47.754;9.566;2024-03-29T00:43:06;4.90;99.90
19970;DHT22;10146;47.754;9.566;2024-03-29T00:45:33;4.90;99.90
19970;DHT22;10146;47.754;9.566;2024-03-29T00:47:58;4.80;99.90
19970;DHT22;10146;47.754;9.566;2024-03-29T00:50:24;4.80;99.90
19970;DHT22;10146;47.754;9.566;2024-03-29T00:52:49;4.80;99.90
19970;DHT22;10146;47.754;9.566;2024-03-29T00:55:15;4.90;99.90
19970;DHT22;10146;47.754;9.566;2024-03-29T00:57:41;4.90;99.90
19970;DHT22;10146;47.754;9.566;2024-03-29T01:00:07;4.90;99.90
19970;DHT22;10146;47.754;9.566;2024-03-29T01:02:34;5.00;99.90
19970;DHT22;10146;47.754;9.566;2024-03-29T01:04:59;5.00;99.90
19970;DHT22;10146;47.754;9.566;2024-03-29T01:07:25;5.20;99.90
19970;DHT22;10146;47.754;9.566;2024-03-29T01:09:51;5.30;99.90
19970;DHT22;10146;47.754;9.566;2024-03-29T01:12:16;5.30;99.90
19970;DHT22;10146;47.754;9.566;2024-03-29T01:14:42;5.40;99.90
19970;DHT22;10146;47.754;9.566;2024-03-29T01:17:07;5.40;99.90
19970;DHT22;10146;47.754;9.566;2024-03-29T01:19:33;5.50;99.90
19970;DHT22;10146;47.754;9.566;2024-03-29T01:21:59;5.50;99.90
19970;DHT22;10146;47.754;9.566;2024-03-29T01:24:24;5.50;99.90
19970;DHT22;10146;47.754;9.566;2024-03-29T01:26:50;5.50;99.90
19970;DHT22;10146;47.754;9.566;2024-03-29T01:29:15;5.60;99.90
19970;DHT22;10146;47.754;9.566;2024-03-29T01:31:42;5.50;99.90
19970;DHT22;10146;47.754;9.566;2024-03-29T01:34:07;5.50;99.90
19970;DHT22;10146;47.754;9.566;2024-03-29T01:36:33;5.50;99.90
19970;DHT22;10146;47.754;9.566;2024-03-29T01:38:58;5.40;99.90
19970;DHT22;10146;47.754;9.566;2024-03-29T01:41:26;5.30;99.90
19970;DHT22;10146;47.754;9.566;2024-03-29T01:43:53;5.20;99.90
19970;DHT22;10146;47.754;9.566;2024-03-29T01:46:23;5.00;99.90
19970;DHT22;10146;47.754;9.566;2024-03-29T01:48:52;4.80;99.90
19970;DHT22;10146;47.754;9.566;2024-03-29T01:51:20;4.70;99.90
19970;DHT22;10146;47.754;9.566;2024-03-29T01:53:47;4.60;99.90
19970;DHT22;10146;47.754;9.566;2024-03-29T01:56:15;4.60;99.90
19970;DHT22;10146;47.754;9.566;2024-03-29T01:58:42;4.60;99.90
19970;DHT22;10146;47.754;9.566;2024-03-29T02:01:09;4.50;99.90
19970;DHT22;10146;47.754;9.566;2024-03-29T02:03:35;4.50;99.90
19970;DHT22;10146;47.754;9.566;2024-03-29T02:06:01;4.40;99.90
19970;DHT22;10146;47.754;9.566;2024-03-29T02:08:28;4.40;99.90
19970;DHT22;10146;47.754;9.566;2024-03-29T02:10:53;4.40;99.90
19970;DHT22;10146;47.754;9.566;2024-03-29T02:13:20;4.30;99.90
19970;DHT22;10146;47.754;9.566;2024-03-29T02:15:45;4.30;99.90
19970;DHT22;10146;47.754;9.566;2024-03-29T02:18:11;4.20;99.90
19970;DHT22;10146;47.754;9.566;2024-03-29T02:20:36;4.10;99.90
19970;DHT22;10146;47.754;9.566;2024-03-29T02:23:19;4.10;99.90
19970;DHT22;10146;47.754;9.566;2024-03-29T02:25:45;4.20;99.90
19970;DHT22;10146;47.754;9.566;2024-03-29T02:28:12;4.20;99.90
19970;DHT22;10146;47.754;9.566;2024-03-29T02:30:38;4.20;99.90
19970;DHT22;10146;47.754;9.566;2024-03-29T02:33:04;4.10;99.90
19970;DHT22;10146;47.754;9.566;2024-03-29T02:35:29;4.00;99.90
19970;DHT22;10146;47.754;9.566;2024-03-29T02:37:56;4.10;99.90
19970;DHT22;10146;47.754;9.566;2024-03-29T02:40:21;4.10;99.90
19970;DHT22;10146;47.754;9.566;2024-03-29T02:42:50;4.10;99.90
19970;DHT22;10146;47.754;9.566;2024-03-29T02:45:16;4.00;99.90
19970;DHT22;10146;47.754;9.566;2024-03-29T02:47:42;3.90;99.90
19970;DHT22;10146;47.754;9.566;2024-03-29T02:50:10;3.90;99.90
19970;DHT22;10146;47.754;9.566;2024-03-29T02:52:36;3.70;99.90
19970;DHT22;10146;47.754;9.566;2024-03-29T02:55:01;3.70;99.90
19970;DHT22;10146;47.754;9.566;2024-03-29T02:57:27;3.60;99.90
19970;DHT22;10146;47.754;9.566;2024-03-29T02:59:53;3.60;99.90
19970;DHT22;10146;47.754;9.566;2024-03-29T03:02:18;3.50;99.90
19970;DHT22;10146;47.754;9.566;2024-03-29T03:04:44;3.50;99.90
19970;DHT22;10146;47.754;9.566;2024-03-29T03:07:09;3.40;99.90
19970;DHT22;10146;47.754;9.566;2024-03-29T03:09:54;3.40;99.90
19970;DHT22;10146;47.754;9.566;2024-03-29T03:12:38;3.30;99.90
19970;DHT22;10146;47.754;9.566;2024-03-29T03:15:04;3.20;99.90
19970;DHT22;10146;47.754;9.566;2024-03-29T03:17:31;3.10;99.90
19970;DHT22;10146;47.754;9.566;2024-03-29T03:19:56;3.20;99.90
19970;DHT22;10146;47.754;9.566;2024-03-29T03:22:22;3.20;99.90
19970;DHT22;10146;47.754;9.566;2024-03-29T03:24:48;3.20;99.90
19970;DHT22;10146;47.754;9.566;2024-03-29T03:27:14;3.20;99.90
19970;DHT22;10146;47.754;9.566;2024-03-29T03:29:39;3.10;99.90
19970;DHT22;10146;47.754;9.566;2024-03-29T03:32:06;3.10;99.90
19970;DHT22;10146;47.754;9.566;2024-03-29T03:34:32;3.10;99.90
19970;DHT22;10146;47.754;9.566;2024-03-29T03:36:58;3.10;99.90
19970;DHT22;10146;47.754;9.566;2024-03-29T03:39:23;3.00;99.90
19970;DHT22;10146;47.754;9.566;2024-03-29T03:41:49;2.90;99.90
19970;DHT22;10146;47.754;9.566;2024-03-29T03:44:15;2.90;99.90
19970;DHT22;10146;47.754;9.566;2024-03-29T03:46:41;2.90;99.90
19970;DHT22;10146;47.754;9.566;2024-03-29T03:49:07;3.00;99.90
19970;DHT22;10146;47.754;9.566;2024-03-29T03:51:32;3.00;99.90
19970;DHT22;10146;47.754;9.566;2024-03-29T03:53:58;2.90;99.90
19970;DHT22;10146;47.754;9.566;2024-03-29T03:56:23;2.80;99.90
19970;DHT22;10146;47.754;9.566;2024-03-29T03:58:49;2.80;99.90
19970;DHT22;10146;47.754;9.566;2024-03-29T04:01:14;2.80;99.90
19970;DHT22;10146;47.754;9.566;2024-03-29T04:03:40;2.90;99.90
19970;DHT22;10146;47.754;9.566;2024-03-29T04:06:06;2.80;99.90
19970;DHT22;10146;47.754;9.566;2024-03-29T04:08:32;2.90;99.90
19970;DHT22;10146;47.754;9.566;2024-03-29T04:10:58;3.00;99.90
19970;DHT22;10146;47.754;9.566;2024-03-29T04:13:27;3.10;99.90
19970;DHT22;10146;47.754;9.566;2024-03-29T04:15:52;3.00;99.90
19970;DHT22;10146;47.754;9.566;2024-03-29T04:18:18;3.00;99.90
19970;DHT22;10146;47.754;9.566;2024-03-29T04:20:43;2.90;99.90
19970;DHT22;10146;47.754;9.566;2024-03-29T04:23:09;2.90;99.90
19970;DHT22;10146;47.754;9.566;2024-03-29T04:25:34;2.90;99.90
19970;DHT22;10146;47.754;9.566;2024-03-29T04:28:00;2.90;99.90
19970;DHT22;10146;47.754;9.566;2024-03-29T04:30:26;3.00;99.90
19970;DHT22;10146;47.754;9.566;2024-03-29T04:32:51;2.90;99.90
19970;DHT22;10146;47.754;9.566;2024-03-29T04:35:17;3.00;99.90
19970;DHT22;10146;47.754;9.566;2024-03-29T04:37:42;3.00;99.90
19970;DHT22;10146;47.754;9.566;2024-03-29T04:40:08;2.90;99.90
19970;DHT22;10146;47.754;9.566;2024-03-29T04:42:34;3.00;99.90
19970;DHT22;10146;47.754;9.566;2024-03-29T04:44:59;3.00;99.90
19970;DHT22;10146;47.754;9.566;2024-03-29T04:47:26;3.00;99.90
19970;DHT22;10146;47.754;9.566;2024-03-29T04:49:51;3.00;99.90
19970;DHT22;10146;47.754;9.566;2024-03-29T04:52:17;2.90;99.90
19970;DHT22;10146;47.754;9.566;2024-03-29T04:54:42;3.00;99.90
19970;DHT22;10146;47.754;9.566;2024-03-29T04:57:09;3.00;99.90
19970;DHT22;10146;47.754;9.566;2024-03-29T04:59:34;3.10;99.90
19970;DHT22;10146;47.754;9.566;2024-03-29T05:02:01;3.10;99.90
19970;DHT22;10146;47.754;9.566;2024-03-29T05:04:27;3.10;99.90
19970;DHT22;10146;47.754;9.566;2024-03-29T05:06:59;3.10;99.90
19970;DHT22;10146;47.754;9.566;2024-03-29T05:09:25;3.10;99.90
19970;DHT22;10146;47.754;9.566;2024-03-29T05:11:52;3.20;99.90
19970;DHT22;10146;47.754;9.566;2024-03-29T05:14:20;3.30;99.90
19970;DHT22;10146;47.754;9.566;2024-03-29T05:16:46;3.20;99.90
19970;DHT22;10146;47.754;9.566;2024-03-29T05:19:15;3.20;99.90
19970;DHT22;10146;47.754;9.566;2024-03-29T05:21:42;3.30;99.90
19970;DHT22;10146;47.754;9.566;2024-03-29T05:24:08;3.30;99.90
19970;DHT22;10146;47.754;9.566;2024-03-29T05:26:34;3.40;99.90
19970;DHT22;10146;47.754;9.566;2024-03-29T05:28:59;3.40;99.90
19970;DHT22;10146;47.754;9.566;2024-03-29T05:31:25;3.50;99.90
19970;DHT22;10146;47.754;9.566;2024-03-29T05:33:52;3.60;99.90
19970;DHT22;10146;47.754;9.566;2024-03-29T05:36:18;3.70;99.90
19970;DHT22;10146;47.754;9.566;2024-03-29T05:38:44;3.90;99.90
19970;DHT22;10146;47.754;9.566;2024-03-29T05:41:10;3.90;99.90
19970;DHT22;10146;47.754;9.566;2024-03-29T05:43:35;4.00;99.90
19970;DHT22;10146;47.754;9.566;2024-03-29T05:46:02;4.10;99.90
19970;DHT22;10146;47.754;9.566;2024-03-29T05:48:28;4.30;99.90
19970;DHT22;10146;47.754;9.566;2024-03-29T05:50:54;4.40;99.90
19970;DHT22;10146;47.754;9.566;2024-03-29T05:53:20;4.40;99.90
19970;DHT22;10146;47.754;9.566;2024-03-29T05:55:45;4.60;99.90
19970;DHT22;10146;47.754;9.566;2024-03-29T05:58:11;4.90;99.90
19970;DHT22;10146;47.754;9.566;2024-03-29T06:00:42;5.00;99.90
19970;DHT22;10146;47.754;9.566;2024-03-29T06:03:08;5.20;99.90
19970;DHT22;10146;47.754;9.566;2024-03-29T06:05:33;5.30;99.90
19970;DHT22;10146;47.754;9.566;2024-03-29T06:07:59;5.40;99.90
19970;DHT22;10146;47.754;9.566;2024-03-29T06:10:24;5.50;99.90
19970;DHT22;10146;47.754;9.566;2024-03-29T06:12:50;5.60;99.90
19970;DHT22;10146;47.754;9.566;2024-03-29T06:15:16;5.70;99.90
19970;DHT22;10146;47.754;9.566;2024-03-29T06:18:00;5.70;99.90
19970;DHT22;10146;47.754;9.566;2024-03-29T06:20:25;5.70;99.90
19970;DHT22;10146;47.754;9.566;2024-03-29T06:22:51;5.90;99.90
19970;DHT22;10146;47.754;9.566;2024-03-29T06:25:17;6.10;99.90
19970;DHT22;10146;47.754;9.566;2024-03-29T06:27:42;6.20;99.90
19970;DHT22;10146;47.754;9.566;2024-03-29T06:30:09;6.40;99.90
19970;DHT22;10146;47.754;9.566;2024-03-29T06:32:35;6.60;99.90
19970;DHT22;10146;47.754;9.566;2024-03-29T06:35:02;6.80;99.90
19970;DHT22;10146;47.754;9.566;2024-03-29T06:37:27;7.00;99.90
19970;DHT22;10146;47.754;9.566;2024-03-29T06:39:53;7.20;99.90
19970;DHT22;10146;47.754;9.566;2024-03-29T06:42:19;7.20;99.90
19970;DHT22;10146;47.754;9.566;2024-03-29T06:44:45;7.30;99.90
19970;DHT22;10146;47.754;9.566;2024-03-29T06:47:11;7.20;99.90
19970;DHT22;10146;47.754;9.566;2024-03-29T06:49:36;7.30;99.90
19970;DHT22;10146;47.754;9.566;2024-03-29T06:52:02;7.40;99.90
19970;DHT22;10146;47.754;9.566;2024-03-29T06:54:28;7.40;99.90
19970;DHT22;10146;47.754;9.566;2024-03-29T06:56:55;7.50;99.90
19970;DHT22;10146;47.754;9.566;2024-03-29T06:59:20;7.70;99.90
19970;DHT22;10146;47.754;9.566;2024-03-29T07:01:46;7.70;99.90
19970;DHT22;10146;47.754;9.566;2024-03-29T07:04:27;7.80;99.90
19970;DHT22;10146;47.754;9.566;2024-03-29T07:06:54;7.90;99.90
19970;DHT22;10146;47.754;9.566;2024-03-29T07:09:20;8.10;99.90
19970;DHT22;10146;47.754;9.566;2024-03-29T07:11:47;8.20;99.90
19970;DHT22;10146;47.754;9.566;2024-03-29T07:14:14;8.30;99.90
19970;DHT22;10146;47.754;9.566;2024-03-29T07:16:41;8.30;99.90
19970;DHT22;10146;47.754;9.566;2024-03-29T07:19:06;8.30;99.90
19970;DHT22;10146;47.754;9.566;2024-03-29T07:21:32;8.30;99.90
19970;DHT22;10146;47.754;9.566;2024-03-29T07:23:58;8.30;99.90
19970;DHT22;10146;47.754;9.566;2024-03-29T07:26:23;8.40;99.90
19970;DHT22;10146;47.754;9.566;2024-03-29T07:28:49;8.50;99.90
19970;DHT22;10146;47.754;9.566;2024-03-29T07:31:14;8.50;99.90
19970;DHT22;10146;47.754;9.566;2024-03-29T07:33:40;8.60;99.90
19970;DHT22;10146;47.754;9.566;2024-03-29T07:36:06;8.80;99.90
19970;DHT22;10146;47.754;9.566;2024-03-29T07:38:33;9.00;99.90
19970;DHT22;10146;47.754;9.566;2024-03-29T07:40:58;9.10;99.90
19970;DHT22;10146;47.754;9.566;2024-03-29T07:43:24;9.30;99.90
19970;DHT22;10146;47.754;9.566;2024-03-29T07:45:50;9.50;99.90
19970;DHT22;10146;47.754;9.566;2024-03-29T07:48:17;9.60;99.90
19970;DHT22;10146;47.754;9.566;2024-03-29T07:50:44;9.60;99.90
19970;DHT22;10146;47.754;9.566;2024-03-29T07:53:10;9.70;99.90
19970;DHT22;10146;47.754;9.566;2024-03-29T07:55:38;9.70;99.90
19970;DHT22;10146;47.754;9.566;2024-03-29T07:58:05;9.80;99.90
19970;DHT22;10146;47.754;9.566;2024-03-29T08:00:32;9.90;99.90
19970;DHT22;10146;47.754;9.566;2024-03-29T08:02:58;10.00;99.90
19970;DHT22;10146;47.754;9.566;2024-03-29T08:05:23;10.10;99.90
19970;DHT22;10146;47.754;9.566;2024-03-29T08:07:58;10.30;99.90
19970;DHT22;10146;47.754;9.566;2024-03-29T08:10:24;10.30;99.90
19970;DHT22;10146;47.754;9.566;2024-03-29T08:12:49;10.40;99.90
19970;DHT22;10146;47.754;9.566;2024-03-29T08:15:15;10.60;99.90
19970;DHT22;10146;47.754;9.566;2024-03-29T08:17:43;10.90;99.90
19970;DHT22;10146;47.754;9.566;2024-03-29T08:20:09;11.20;99.90
19970;DHT22;10146;47.754;9.566;2024-03-29T08:22:35;11.50;99.90
19970;DHT22;10146;47.754;9.566;2024-03-29T08:25:00;11.70;99.90
19970;DHT22;10146;47.754;9.566;2024-03-29T08:27:27;11.80;99.90
19970;DHT22;10146;47.754;9.566;2024-03-29T08:29:52;12.00;99.90
19970;DHT22;10146;47.754;9.566;2024-03-29T08:32:18;12.10;99.90
19970;DHT22;10146;47.754;9.566;2024-03-29T08:34:44;12.30;99.90
19970;DHT22;10146;47.754;9.566;2024-03-29T08:37:09;12.40;99.90
19970;DHT22;10146;47.754;9.566;2024-03-29T08:39:35;12.50;99.90
19970;DHT22;10146;47.754;9.566;2024-03-29T08:42:05;12.60;99.90
19970;DHT22;10146;47.754;9.566;2024-03-29T08:44:32;12.60;99.90
19970;DHT22;10146;47.754;9.566;2024-03-29T08:46:58;12.70;99.90
19970;DHT22;10146;47.754;9.566;2024-03-29T08:49:29;12.80;99.90
19970;DHT22;10146;47.754;9.566;2024-03-29T08:51:55;12.80;99.90
19970;DHT22;10146;47.754;9.566;2024-03-29T08:54:21;12.90;99.90
19970;DHT22;10146;47.754;9.566;2024-03-29T08:56:47;12.90;99.90
19970;DHT22;10146;47.754;9.566;2024-03-29T08:59:13;13.00;99.90
19970;DHT22;10146;47.754;9.566;2024-03-29T09:01:43;13.00;99.90
19970;DHT22;10146;47.754;9.566;2024-03-29T09:04:09;13.00;99.90
19970;DHT22;10146;47.754;9.566;2024-03-29T09:06:37;13.00;99.90
19970;DHT22;10146;47.754;9.566;2024-03-29T09:09:04;13.10;99.90
19970;DHT22;10146;47.754;9.566;2024-03-29T09:11:30;13.20;99.90
19970;DHT22;10146;47.754;9.566;2024-03-29T09:13:55;13.30;99.90
19970;DHT22;10146;47.754;9.566;2024-03-29T09:16:24;13.40;99.90
19970;DHT22;10146;47.754;9.566;2024-03-29T09:18:50;13.50;99.90
19970;DHT22;10146;47.754;9.566;2024-03-29T09:21:16;13.50;99.90
19970;DHT22;10146;47.754;9.566;2024-03-29T09:23:42;13.40;99.90
19970;DHT22;10146;47.754;9.566;2024-03-29T09:26:08;13.40;99.90
19970;DHT22;10146;47.754;9.566;2024-03-29T09:28:34;13.40;99.90
19970;DHT22;10146;47.754;9.566;2024-03-29T09:31:02;13.50;99.90
19970;DHT22;10146;47.754;9.566;2024-03-29T09:33:27;13.60;99.90
19970;DHT22;10146;47.754;9.566;2024-03-29T09:35:53;13.70;99.90
19970;DHT22;10146;47.754;9.566;2024-03-29T09:38:19;13.90;99.90
19970;DHT22;10146;47.754;9.566;2024-03-29T09:40:45;14.00;99.90
19970;DHT22;10146;47.754;9.566;2024-03-29T09:43:13;14.30;99.90
19970;DHT22;10146;47.754;9.566;2024-03-29T09:45:40;14.40;99.90
19970;DHT22;10146;47.754;9.566;2024-03-29T09:48:07;14.60;99.90
19970;DHT22;10146;47.754;9.566;2024-03-29T09:50:35;14.80;99.90
19970;DHT22;10146;47.754;9.566;2024-03-29T09:53:06;14.90;99.90
19970;DHT22;10146;47.754;9.566;2024-03-29T09:55:34;15.00;99.90
19970;DHT22;10146;47.754;9.566;2024-03-29T09:58:00;15.00;99.90
19970;DHT22;10146;47.754;9.566;2024-03-29T10:00:27;15.10;99.90
19970;DHT22;10146;47.754;9.566;2024-03-29T10:02:55;15.10;99.90
19970;DHT22;10146;47.754;9.566;2024-03-29T10:05:23;15.20;99.90
19970;DHT22;10146;47.754;9.566;2024-03-29T10:07:49;15.50;99.90
19970;DHT22;10146;47.754;9.566;2024-03-29T10:10:15;15.60;99.90
19970;DHT22;10146;47.754;9.566;2024-03-29T10:12:41;15.80;99.90
19970;DHT22;10146;47.754;9.566;2024-03-29T10:15:07;15.90;99.90
19970;DHT22;10146;47.754;9.566;2024-03-29T10:17:44;16.10;99.90
19970;DHT22;10146;47.754;9.566;2024-03-29T10:20:10;16.30;99.90
19970;DHT22;10146;47.754;9.566;2024-03-29T10:22:40;16.40;99.90
19970;DHT22;10146;47.754;9.566;2024-03-29T10:25:06;16.70;99.40
19970;DHT22;10146;47.754;9.566;2024-03-29T10:27:32;16.80;97.50
19970;DHT22;10146;47.754;9.566;2024-03-29T10:29:59;17.00;95.90
19970;DHT22;10146;47.754;9.566;2024-03-29T10:32:24;17.10;94.90
19970;DHT22;10146;47.754;9.566;2024-03-29T10:34:51;17.20;93.00
19970;DHT22;10146;47.754;9.566;2024-03-29T10:37:17;17.20;93.60
19970;DHT22;10146;47.754;9.566;2024-03-29T10:39:50;17.30;92.70
19970;DHT22;10146;47.754;9.566;2024-03-29T10:42:16;17.50;91.90
19970;DHT22;10146;47.754;9.566;2024-03-29T10:44:42;17.80;90.50
19970;DHT22;10146;47.754;9.566;2024-03-29T10:47:09;17.90;91.20
19970;DHT22;10146;47.754;9.566;2024-03-29T10:49:38;17.90;91.10
19970;DHT22;10146;47.754;9.566;2024-03-29T10:52:05;17.90;89.70
19970;DHT22;10146;47.754;9.566;2024-03-29T10:54:34;18.00;86.80
19970;DHT22;10146;47.754;9.566;2024-03-29T10:57:12;18.00;88.00
19970;DHT22;10146;47.754;9.566;2024-03-29T10:59:46;18.20;86.90
19970;DHT22;10146;47.754;9.566;2024-03-29T11:02:35;18.20;87.00
19970;DHT22;10146;47.754;9.566;2024-03-29T11:05:07;18.30;86.80
19970;DHT22;10146;47.754;9.566;2024-03-29T11:07:35;18.50;85.40
19970;DHT22;10146;47.754;9.566;2024-03-29T11:10:05;18.60;85.90
19970;DHT22;10146;47.754;9.566;2024-03-29T11:12:39;18.60;85.00
19970;DHT22;10146;47.754;9.566;2024-03-29T11:15:10;18.60;84.90
19970;DHT22;10146;47.754;9.566;2024-03-29T11:17:40;18.80;83.60
19970;DHT22;10146;47.754;9.566;2024-03-29T11:20:07;18.90;83.10
19970;DHT22;10146;47.754;9.566;2024-03-29T11:22:33;19.20;83.50
19970;DHT22;10146;47.754;9.566;2024-03-29T11:25:01;19.50;80.80
19970;DHT22;10146;47.754;9.566;2024-03-29T11:27:26;19.70;80.40
19970;DHT22;10146;47.754;9.566;2024-03-29T11:29:52;19.80;78.20
19970;DHT22;10146;47.754;9.566;2024-03-29T11:32:37;19.80;77.20
19970;DHT22;10146;47.754;9.566;2024-03-29T11:35:04;19.80;76.20
19970;DHT22;10146;47.754;9.566;2024-03-29T11:37:31;20.00;76.40
19970;DHT22;10146;47.754;9.566;2024-03-29T11:39:59;20.10;74.30
19970;DHT22;10146;47.754;9.566;2024-03-29T11:42:43;20.30;74.20
19970;DHT22;10146;47.754;9.566;2024-03-29T11:45:09;20.50;74.00
19970;DHT22;10146;47.754;9.566;2024-03-29T11:47:36;20.70;70.50
19970;DHT22;10146;47.754;9.566;2024-03-29T11:50:03;20.90;70.20
19970;DHT22;10146;47.754;9.566;2024-03-29T11:52:30;21.00;69.70
19970;DHT22;10146;47.754;9.566;2024-03-29T11:54:55;21.00;66.60
19970;DHT22;10146;47.754;9.566;2024-03-29T11:57:21;21.10;66.80
19970;DHT22;10146;47.754;9.566;2024-03-29T11:59:47;21.10;64.50
19970;DHT22;10146;47.754;9.566;2024-03-29T12:02:13;21.20;67.60
19970;DHT22;10146;47.754;9.566;2024-03-29T12:04:41;21.20;66.00
19970;DHT22;10146;47.754;9.566;2024-03-29T12:07:06;21.20;64.60
19970;DHT22;10146;47.754;9.566;2024-03-29T12:09:32;21.20;62.90
19970;DHT22;10146;47.754;9.566;2024-03-29T12:11:58;21.10;62.70
19970;DHT22;10146;47.754;9.566;2024-03-29T12:14:29;21.20;63.20
19970;DHT22;10146;47.754;9.566;2024-03-29T12:17:00;21.20;62.80
19970;DHT22;10146;47.754;9.566;2024-03-29T12:19:26;21.10;63.40
19970;DHT22;10146;47.754;9.566;2024-03-29T12:21:56;21.10;65.10
19970;DHT22;10146;47.754;9.566;2024-03-29T12:24:22;20.90;63.60
19970;DHT22;10146;47.754;9.566;2024-03-29T12:26:50;20.90;64.50
19970;DHT22;10146;47.754;9.566;2024-03-29T12:29:16;20.90;64.70
19970;DHT22;10146;47.754;9.566;2024-03-29T12:31:42;20.90;65.70
19970;DHT22;10146;47.754;9.566;2024-03-29T12:34:07;20.80;64.60
19970;DHT22;10146;47.754;9.566;2024-03-29T12:36:33;20.80;64.30
19970;DHT22;10146;47.754;9.566;2024-03-29T12:38:59;20.80;63.60
19970;DHT22;10146;47.754;9.566;2024-03-29T12:41:31;20.80;63.80
19970;DHT22;10146;47.754;9.566;2024-03-29T12:43:58;20.70;63.40
19970;DHT22;10146;47.754;9.566;2024-03-29T12:46:24;20.70;64.20
19970;DHT22;10146;47.754;9.566;2024-03-29T12:48:58;20.80;62.90
19970;DHT22;10146;47.754;9.566;2024-03-29T12:51:23;20.80;62.90
19970;DHT22;10146;47.754;9.566;2024-03-29T12:53:49;20.70;62.90
19970;DHT22;10146;47.754;9.566;2024-03-29T12:56:14;20.80;62.30
19970;DHT22;10146;47.754;9.566;2024-03-29T12:58:40;20.70;62.30
19970;DHT22;10146;47.754;9.566;2024-03-29T13:01:06;20.90;62.90
19970;DHT22;10146;47.754;9.566;2024-03-29T13:03:32;21.10;61.40
19970;DHT22;10146;47.754;9.566;2024-03-29T13:05:57;21.10;61.30
19970;DHT22;10146;47.754;9.566;2024-03-29T13:08:23;21.10;60.40
19970;DHT22;10146;47.754;9.566;2024-03-29T13:10:49;21.20;60.20
19970;DHT22;10146;47.754;9.566;2024-03-29T13:13:14;21.30;60.80
19970;DHT22;10146;47.754;9.566;2024-03-29T13:15:41;21.50;60.10
19970;DHT22;10146;47.754;9.566;2024-03-29T13:18:08;21.60;59.90
19970;DHT22;10146;47.754;9.566;2024-03-29T13:20:36;21.70;58.40
19970;DHT22;10146;47.754;9.566;2024-03-29T13:23:06;21.60;59.50
19970;DHT22;10146;47.754;9.566;2024-03-29T13:25:31;21.60;60.00
19970;DHT22;10146;47.754;9.566;2024-03-29T13:27:57;21.60;58.20
19970;DHT22;10146;47.754;9.566;2024-03-29T13:30:25;21.60;58.10
19970;DHT22;10146;47.754;9.566;2024-03-29T13:32:51;21.60;58.60
19970;DHT22;10146;47.754;9.566;2024-03-29T13:35:18;21.40;58.00
19970;DHT22;10146;47.754;9.566;2024-03-29T13:37:47;21.30;57.60
19970;DHT22;10146;47.754;9.566;2024-03-29T13:40:18;21.30;57.40
19970;DHT22;10146;47.754;9.566;2024-03-29T13:42:44;21.40;57.30
19970;DHT22;10146;47.754;9.566;2024-03-29T13:45:10;21.40;57.60
19970;DHT22;10146;47.754;9.566;2024-03-29T13:47:41;21.30;57.00
19970;DHT22;10146;47.754;9.566;2024-03-29T13:50:08;21.30;57.10
19970;DHT22;10146;47.754;9.566;2024-03-29T13:52:35;21.30;56.90
19970;DHT22;10146;47.754;9.566;2024-03-29T13:55:01;21.30;56.80
19970;DHT22;10146;47.754;9.566;2024-03-29T13:57:28;21.30;57.50
19970;DHT22;10146;47.754;9.566;2024-03-29T13:59:54;21.30;56.90
19970;DHT22;10146;47.754;9.566;2024-03-29T14:02:19;21.30;56.00
19970;DHT22;10146;47.754;9.566;2024-03-29T14:04:46;21.40;55.30
19970;DHT22;10146;47.754;9.566;2024-03-29T14:07:14;21.50;56.00
19970;DHT22;10146;47.754;9.566;2024-03-29T14:09:43;21.70;55.80
19970;DHT22;10146;47.754;9.566;2024-03-29T14:12:10;21.70;54.60
19970;DHT22;10146;47.754;9.566;2024-03-29T14:14:36;21.80;54.50
19970;DHT22;10146;47.754;9.566;2024-03-29T14:17:02;21.80;54.60
19970;DHT22;10146;47.754;9.566;2024-03-29T14:19:33;21.70;54.80
19970;DHT22;10146;47.754;9.566;2024-03-29T14:22:02;21.60;54.00
19970;DHT22;10146;47.754;9.566;2024-03-29T14:24:28;21.40;54.50
19970;DHT22;10146;47.754;9.566;2024-03-29T14:26:56;21.20;54.50
19970;DHT22;10146;47.754;9.566;2024-03-29T14:29:22;21.10;55.00
19970;DHT22;10146;47.754;9.566;2024-03-29T14:31:48;21.10;55.00
19970;DHT22;10146;47.754;9.566;2024-03-29T14:34:14;21.10;55.20
19970;DHT22;10146;47.754;9.566;2024-03-29T14:36:40;20.90;54.60
19970;DHT22;10146;47.754;9.566;2024-03-29T14:39:06;20.90;54.30
19970;DHT22;10146;47.754;9.566;2024-03-29T14:41:31;20.80;55.00
19970;DHT22;10146;47.754;9.566;2024-03-29T14:43:57;20.80;54.80
19970;DHT22;10146;47.754;9.566;2024-03-29T14:46:23;20.80;54.40
19970;DHT22;10146;47.754;9.566;2024-03-29T14:48:49;20.70;54.70
19970;DHT22;10146;47.754;9.566;2024-03-29T14:51:16;20.70;53.90
19970;DHT22;10146;47.754;9.566;2024-03-29T14:53:41;20.70;54.30
19970;DHT22;10146;47.754;9.566;2024-03-29T14:56:13;20.60;54.40
19970;DHT22;10146;47.754;9.566;2024-03-29T14:58:38;20.60;54.10
19970;DHT22;10146;47.754;9.566;2024-03-29T15:01:05;20.50;54.40
19970;DHT22;10146;47.754;9.566;2024-03-29T15:03:31;20.50;54.40
19970;DHT22;10146;47.754;9.566;2024-03-29T15:05:56;20.40;54.90
19970;DHT22;10146;47.754;9.566;2024-03-29T15:08:22;20.40;55.20
19970;DHT22;10146;47.754;9.566;2024-03-29T15:11:02;20.30;55.30
19970;DHT22;10146;47.754;9.566;2024-03-29T15:13:28;20.20;55.60
19970;DHT22;10146;47.754;9.566;2024-03-29T15:15:57;20.20;55.50
19970;DHT22;10146;47.754;9.566;2024-03-29T15:18:23;20.10;55.50
19970;DHT22;10146;47.754;9.566;2024-03-29T15:20:59;20.00;55.10
19970;DHT22;10146;47.754;9.566;2024-03-29T15:23:27;20.00;55.90
19970;DHT22;10146;47.754;9.566;2024-03-29T15:25:57;19.90;55.90
19970;DHT22;10146;47.754;9.566;2024-03-29T15:28:24;19.80;56.20
19970;DHT22;10146;47.754;9.566;2024-03-29T15:31:19;19.90;55.80
19970;DHT22;10146;47.754;9.566;2024-03-29T15:33:51;19.80;56.20
19970;DHT22;10146;47.754;9.566;2024-03-29T15:36:18;19.70;56.10